Kurunegala, Sri Lanka

6:42 PM IST on August 25, 2016 (GMT +0530)
TROPIFLORA SRI LANKA LENA | | Change Station

Elev 512 ft 7.56 °N, 80.51 °E | Updated 6 minutes ago

Scattered Clouds
Scattered Clouds
80.7 °F
Feels Like 85 °F
N
0.0
Wind Variable Wind from South
Gusts 3.0 mph

Today
High -- | Low -- °F
--% Chance of Precip.
Yesterday
High -- | Low -- °F
Precip. -- in
Pressure 29.77 in
Visibility 6.2 miles
Clouds Scattered Clouds 1700 ft
Heat Index 85 °F
Dew Point 73 °F
Humidity 76%
Rainfall 0.02 in
Snow Depth Not available.
6:01 AM 6:19 PM
Last Quarter, 46% visible
METAR VCBI 251210Z 24009KT 9999 SCT017 28/23 Q1008 NOSIG
Pressure 29.77 in
Visibility 6.2 miles
Clouds Scattered Clouds 1700 ft
Heat Index 85 °F
Dew Point 73 °F
Humidity 76%
Rainfall 0.02 in
Snow Depth Not available.
6:01 AM 6:19 PM
Last Quarter, 46% visible
METAR VCBI 251210Z 24009KT 9999 SCT017 28/23 Q1008 NOSIG

10-Day Weather Forecast

No radar image for this location.
×

Almanac

Astronomy

Aug. 25, 2016 Rise Set
Actual Time
Civil Twilight
Nautical Twilight
Astronomical Twilight
Moon
Length of Visible Light
Length of Day
Tomorrow will be .
, % of the Moon is Illuminated

Today's Extremes

Country Highs Country Lows

Community

WunderPhotos

Upload Photos

1,934,842 photos uploaded!

WunderBlog® & News

Nearby

Air Quality

  Air Quality AQ Index Pollutant
Not available.

Snow Depth

Station Depth Elevation

Earthquake Activity

City Distance Mag. Time & Date
Minimum magnitude displayed is 2.5.

Coastal Water Temperatures

Place Temperature

Stations

Nearby Weather Stations

Station Location Temp. Windchill Dew Point Humidity Wind Precip. Elev Updated Type